Terminal Aerodrome Forecast
Issued by NWS

Home | Current Version | Previous Version | Text Only | Print | Product List | Glossary On
Versions: 1 2 3 4 5 6 7 8 9 10 11 12 13 14
342
FTUS41 KBTV 240229 AAA
TAFSLK
TAF AMD
KSLK 240229Z 2402/2424 00000KT 4SM BR SCT002
      TEMPO 2403/2406 1SM BR BKN002
     FM240600 00000KT 1/2SM FG BKN001
     FM241300 23004KT P6SM FEW250
     FM241500 26006KT P6SM FEW250=

USA.gov is the U.S. government's official web portal to all federal, state and local government web resources and services.